Time;durP1;ratioP1;P1;durP2;ratioP2;P2;SDS_P1;SDS_P2;PMS_P1;PMS_P2;Temp;Humidity;BMP_temperature;BMP_pressure;BME280_temperature;BME280_humidity;BME280_pressure;Samples;Min_cycle;Max_cycle;Signal;HPM_P1;HPM_P2
2024/04/07 00:01:31;;;;;;;6.90;3.83;;;;;;;;;;5087056;28;20219;-72
2024/04/07 00:04:00;;;;;;;7.13;4.28;;;;;;;;;;5085454;28;20188;-72
2024/04/07 00:06:28;;;;;;;7.88;3.72;;;;;;;;;;5071106;28;20552;-72
2024/04/07 00:08:54;;;;;;;6.40;3.80;;;;;;;;;;5072115;28;20721;-72
2024/04/07 00:11:20;;;;;;;6.85;3.90;;;;;;;;;;5083616;28;20180;-72
2024/04/07 00:13:46;;;;;;;5.35;3.42;;;;;;;;;;5084572;28;20196;-72
2024/04/07 00:16:12;;;;;;;7.03;3.65;;;;;;;;;;5088673;28;20199;-72
2024/04/07 00:18:38;;;;;;;5.80;3.42;;;;;;;;;;5078780;28;20204;-72
2024/04/07 00:21:04;;;;;;;9.23;3.65;;;;;;;;;;5080935;28;21382;-72
2024/04/07 00:23:31;;;;;;;5.97;3.40;;;;;;;;;;5085943;28;20271;-71
2024/04/07 00:25:57;;;;;;;9.27;3.45;;;;;;;;;;5071838;28;20196;-71
2024/04/07 00:28:23;;;;;;;7.63;3.60;;;;;;;;;;5073147;28;20204;-71
2024/04/07 00:30:48;;;;;;;8.88;3.28;;;;;;;;;;5089207;28;20188;-71
2024/04/07 00:33:15;;;;;;;8.25;3.60;;;;;;;;;;5085242;28;20202;-71
2024/04/07 00:35:41;;;;;;;9.00;3.85;;;;;;;;;;5089036;28;20218;-71
2024/04/07 00:38:07;;;;;;;7.00;3.55;;;;;;;;;;5082367;28;20283;-71
2024/04/07 00:40:32;;;;;;;6.95;3.63;;;;;;;;;;5086891;28;20279;-71
2024/04/07 00:42:57;;;;;;;8.13;3.88;;;;;;;;;;5059955;28;20187;-71
2024/04/07 00:45:23;;;;;;;12.55;3.72;;;;;;;;;;5079184;28;20187;-71
2024/04/07 00:47:49;;;;;;;7.15;3.47;;;;;;;;;;5075728;28;20287;-72
2024/04/07 00:50:15;;;;;;;9.10;3.78;;;;;;;;;;5073737;28;20199;-72
2024/04/07 00:52:42;;;;;;;8.20;3.88;;;;;;;;;;5079029;28;20192;-71
2024/04/07 00:55:08;;;;;;;7.95;3.70;;;;;;;;;;5087093;28;20219;-71
2024/04/07 00:57:34;;;;;;;6.40;3.70;;;;;;;;;;5088595;28;20165;-72
2024/04/07 01:00:00;;;;;;;12.77;3.72;;;;;;;;;;5085448;28;20192;-71
2024/04/07 01:02:26;;;;;;;9.65;3.88;;;;;;;;;;5086787;28;20613;-72
2024/04/07 01:04:51;;;;;;;7.05;3.83;;;;;;;;;;5076630;28;20185;-71
2024/04/07 01:07:17;;;;;;;6.65;3.67;;;;;;;;;;5086085;28;20192;-71
2024/04/07 01:09:42;;;;;;;7.28;3.83;;;;;;;;;;5089766;28;20677;-72
2024/04/07 01:12:14;;;;;;;9.52;4.13;;;;;;;;;;5088431;28;20271;-71
2024/04/07 01:14:40;;;;;;;8.43;3.72;;;;;;;;;;5085504;28;20184;-71
2024/04/07 01:17:06;;;;;;;6.90;3.40;;;;;;;;;;5085411;28;20192;-71
2024/04/07 01:19:34;;;;;;;6.25;3.50;;;;;;;;;;5078437;28;20627;-71
2024/04/07 01:22:01;;;;;;;7.63;3.38;;;;;;;;;;5093645;28;20188;-71
2024/04/07 01:24:27;;;;;;;6.32;3.35;;;;;;;;;;5086471;28;20180;-71
2024/04/07 01:26:52;;;;;;;12.75;3.83;;;;;;;;;;5086485;28;20187;-71
2024/04/07 01:29:18;;;;;;;7.88;3.47;;;;;;;;;;5073054;28;20208;-71
2024/04/07 01:31:43;;;;;;;4.68;3.10;;;;;;;;;;5081769;28;20216;-71
2024/04/07 01:34:09;;;;;;;5.63;3.17;;;;;;;;;;5087230;28;20190;-71
2024/04/07 01:36:35;;;;;;;6.35;3.38;;;;;;;;;;5073773;28;20187;-71
2024/04/07 01:39:00;;;;;;;5.88;3.08;;;;;;;;;;5084458;28;20224;-71
2024/04/07 01:41:25;;;;;;;8.60;3.50;;;;;;;;;;5082445;28;20274;-72
2024/04/07 01:43:51;;;;;;;6.45;2.92;;;;;;;;;;5076235;28;20176;-72
2024/04/07 01:46:16;;;;;;;5.15;3.15;;;;;;;;;;5072827;28;20234;-71
2024/04/07 01:48:42;;;;;;;8.90;3.20;;;;;;;;;;5088437;28;20204;-71
2024/04/07 01:51:07;;;;;;;5.07;2.72;;;;;;;;;;5085866;28;20663;-72
2024/04/07 01:53:33;;;;;;;3.95;3.33;;;;;;;;;;5067836;28;20208;-71
2024/04/07 01:55:58;;;;;;;4.47;2.60;;;;;;;;;;5088417;28;20325;-71
2024/04/07 01:58:24;;;;;;;5.25;2.85;;;;;;;;;;5087243;28;20183;-71
2024/04/07 02:00:50;;;;;;;5.25;2.58;;;;;;;;;;5083139;28;20234;-71
2024/04/07 02:03:15;;;;;;;5.70;2.15;;;;;;;;;;5076910;28;20215;-71
2024/04/07 02:05:41;;;;;;;8.88;2.55;;;;;;;;;;5082501;28;20604;-70
2024/04/07 02:08:06;;;;;;;6.22;2.60;;;;;;;;;;5086165;28;20208;-71
2024/04/07 02:10:32;;;;;;;5.00;2.13;;;;;;;;;;5077899;28;20188;-71
2024/04/07 02:12:58;;;;;;;7.18;2.25;;;;;;;;;;5077450;28;20199;-71
2024/04/07 02:15:24;;;;;;;7.93;2.20;;;;;;;;;;5077577;28;20544;-71
2024/04/07 02:17:50;;;;;;;10.15;2.60;;;;;;;;;;5072265;28;20284;-71
2024/04/07 02:20:16;;;;;;;5.07;1.95;;;;;;;;;;5068632;28;20318;-71
2024/04/07 02:22:42;;;;;;;8.32;2.25;;;;;;;;;;5078438;28;20715;-72
2024/04/07 02:25:08;;;;;;;6.80;2.20;;;;;;;;;;5072285;28;20187;-72
2024/04/07 02:27:33;;;;;;;4.90;2.75;;;;;;;;;;5085033;28;20247;-72
2024/04/07 02:29:58;;;;;;;12.02;2.75;;;;;;;;;;5084959;28;20184;-72
2024/04/07 02:32:24;;;;;;;8.90;2.90;;;;;;;;;;5085319;28;20579;-71
2024/04/07 02:34:49;;;;;;;10.35;2.60;;;;;;;;;;5083276;28;20619;-72
2024/04/07 02:37:15;;;;;;;5.90;2.50;;;;;;;;;;5086719;28;20721;-72
2024/04/07 02:39:40;;;;;;;7.90;2.40;;;;;;;;;;5087847;28;20224;-71
2024/04/07 02:42:06;;;;;;;7.25;2.38;;;;;;;;;;5088077;28;20195;-71
2024/04/07 02:49:59;;;;;;;8.93;1.73;;;;;;;;;;5085561;28;20223;-71
2024/04/07 02:52:24;;;;;;;7.88;2.30;;;;;;;;;;5076477;28;20560;-71
2024/04/07 02:54:50;;;;;;;7.28;1.95;;;;;;;;;;5079458;28;20191;-70
2024/04/07 02:57:15;;;;;;;6.10;1.83;;;;;;;;;;5086137;28;20236;-70
2024/04/07 02:59:41;;;;;;;7.75;1.73;;;;;;;;;;5088239;28;20287;-71
2024/04/07 03:02:06;;;;;;;8.63;1.90;;;;;;;;;;5079973;28;20287;-71
2024/04/07 03:04:32;;;;;;;3.20;1.55;;;;;;;;;;5083077;28;20451;-71
2024/04/07 03:07:00;;;;;;;3.97;1.58;;;;;;;;;;5080452;28;20220;-71
2024/04/07 03:09:27;;;;;;;5.47;1.63;;;;;;;;;;5073921;28;20218;-72
2024/04/07 03:11:52;;;;;;;3.90;1.23;;;;;;;;;;5084831;28;20180;-71
2024/04/07 03:14:19;;;;;;;6.65;1.23;;;;;;;;;;5084156;28;20520;-69
2024/04/07 03:16:45;;;;;;;2.78;0.95;;;;;;;;;;5074062;28;21287;-71
2024/04/07 03:19:11;;;;;;;6.40;1.10;;;;;;;;;;5088030;28;20663;-70
2024/04/07 03:21:36;;;;;;;4.28;1.05;;;;;;;;;;5084999;28;20203;-70
2024/04/07 03:24:02;;;;;;;2.88;0.73;;;;;;;;;;5080703;28;20658;-70
2024/04/07 03:26:27;;;;;;;2.80;0.70;;;;;;;;;;5087360;28;20658;-71
2024/04/07 03:28:53;;;;;;;4.05;0.80;;;;;;;;;;5090934;28;20587;-70
2024/04/07 03:31:18;;;;;;;4.20;1.17;;;;;;;;;;5085741;28;20230;-71
2024/04/07 03:33:47;;;;;;;1.75;0.73;;;;;;;;;;5070053;28;20284;-70
2024/04/07 03:36:13;;;;;;;4.20;0.93;;;;;;;;;;5083047;28;20552;-71
2024/04/07 03:38:38;;;;;;;3.28;0.70;;;;;;;;;;5086795;28;20357;-71
2024/04/07 03:41:04;;;;;;;2.40;0.75;;;;;;;;;;5088962;28;20513;-72
2024/04/07 03:43:29;;;;;;;2.15;0.60;;;;;;;;;;5076702;28;20196;-71
2024/04/07 03:46:02;;;;;;;3.03;0.55;;;;;;;;;;5091852;28;20298;-71
2024/04/07 03:48:28;;;;;;;4.53;0.65;;;;;;;;;;5080514;28;20203;-71
2024/04/07 03:50:53;;;;;;;2.70;0.75;;;;;;;;;;5083345;28;20640;-70
2024/04/07 03:53:19;;;;;;;1.70;0.73;;;;;;;;;;5088674;28;20195;-72
2024/04/07 03:55:44;;;;;;;1.83;0.50;;;;;;;;;;5080388;28;20222;-71
2024/04/07 03:58:10;;;;;;;0.93;0.50;;;;;;;;;;5072794;28;20281;-71
2024/04/07 04:00:35;;;;;;;2.63;0.65;;;;;;;;;;5081751;28;20196;-71
2024/04/07 04:03:02;;;;;;;1.88;0.50;;;;;;;;;;5071200;28;20196;-71
2024/04/07 04:05:27;;;;;;;1.58;0.50;;;;;;;;;;5071879;28;20188;-72
2024/04/07 04:07:53;;;;;;;0.93;0.45;;;;;;;;;;5080524;28;20196;-71
2024/04/07 04:10:18;;;;;;;2.65;0.55;;;;;;;;;;5089821;28;20214;-70
2024/04/07 04:12:43;;;;;;;4.63;0.65;;;;;;;;;;5083167;28;20184;-72
2024/04/07 04:15:09;;;;;;;4.43;0.50;;;;;;;;;;5080772;28;20188;-72
2024/04/07 04:17:35;;;;;;;2.13;0.50;;;;;;;;;;5077015;28;20185;-71
2024/04/07 04:20:00;;;;;;;2.88;0.50;;;;;;;;;;5087191;28;20671;-71
2024/04/07 04:22:26;;;;;;;2.97;0.52;;;;;;;;;;5090584;28;20188;-70
2024/04/07 04:24:52;;;;;;;2.67;0.80;;;;;;;;;;5079989;28;20669;-72
2024/04/07 04:27:18;;;;;;;2.05;0.40;;;;;;;;;;5090779;28;20303;-70
2024/04/07 04:29:43;;;;;;;0.77;0.40;;;;;;;;;;5080639;28;20212;-71
2024/04/07 04:32:08;;;;;;;1.85;0.80;;;;;;;;;;5083671;28;20551;-70
2024/04/07 04:34:34;;;;;;;2.33;0.40;;;;;;;;;;5059804;28;20181;-70
2024/04/07 04:37:00;;;;;;;2.15;0.50;;;;;;;;;;5078028;28;20199;-71
2024/04/07 04:39:26;;;;;;;4.30;0.65;;;;;;;;;;5073866;28;20231;-71
2024/04/07 04:41:52;;;;;;;2.15;0.60;;;;;;;;;;5081959;28;20189;-71
2024/04/07 04:44:18;;;;;;;1.05;0.50;;;;;;;;;;5074930;28;20731;-71
2024/04/07 04:46:45;;;;;;;1.10;0.65;;;;;;;;;;5078082;28;20226;-71
2024/04/07 04:49:14;;;;;;;1.38;0.47;;;;;;;;;;5077114;28;20279;-71
2024/04/07 04:51:40;;;;;;;3.13;0.60;;;;;;;;;;5080015;28;20191;-71
2024/04/07 04:54:06;;;;;;;1.35;0.52;;;;;;;;;;5069403;28;20233;-71
2024/04/07 04:56:32;;;;;;;3.70;0.43;;;;;;;;;;5083219;28;20184;-71
2024/04/07 04:58:58;;;;;;;2.70;0.50;;;;;;;;;;5086795;28;20207;-71
2024/04/07 05:01:24;;;;;;;2.47;0.52;;;;;;;;;;5082314;28;20571;-71
2024/04/07 05:03:50;;;;;;;0.63;0.30;;;;;;;;;;5088487;28;20263;-71
2024/04/07 05:06:16;;;;;;;2.38;0.50;;;;;;;;;;5087276;28;20284;-71
2024/04/07 05:08:42;;;;;;;1.77;0.50;;;;;;;;;;5080288;28;20253;-71
2024/04/07 05:11:09;;;;;;;1.45;0.45;;;;;;;;;;5085216;28;20192;-71
2024/04/07 05:13:35;;;;;;;3.00;0.68;;;;;;;;;;5089449;28;20188;-71
2024/04/07 05:16:02;;;;;;;1.80;0.52;;;;;;;;;;5088566;28;20193;-71
2024/04/07 05:18:28;;;;;;;2.47;1.05;;;;;;;;;;5080800;28;20175;-71
2024/04/07 05:20:55;;;;;;;2.05;0.65;;;;;;;;;;5091883;28;20281;-71
2024/04/07 05:23:21;;;;;;;3.30;0.93;;;;;;;;;;5087079;28;20533;-71
2024/04/07 05:25:46;;;;;;;2.60;0.73;;;;;;;;;;5089007;28;20283;-71
2024/04/07 05:28:12;;;;;;;3.03;0.70;;;;;;;;;;5087501;28;20630;-72
2024/04/07 05:30:40;;;;;;;2.15;0.68;;;;;;;;;;5085644;28;20647;-71
2024/04/07 05:33:06;;;;;;;2.42;0.60;;;;;;;;;;5079601;28;20196;-70
2024/04/07 05:35:32;;;;;;;3.83;1.08;;;;;;;;;;5086793;28;20192;-72
2024/04/07 05:37:59;;;;;;;1.70;0.60;;;;;;;;;;5075813;28;20240;-70
2024/04/07 05:40:25;;;;;;;0.82;0.65;;;;;;;;;;5086017;28;20665;-72
2024/04/07 05:42:54;;;;;;;2.05;0.70;;;;;;;;;;5085613;28;20188;-71
2024/04/07 05:45:20;;;;;;;2.53;0.82;;;;;;;;;;5077679;28;20188;-71
2024/04/07 05:47:49;;;;;;;3.53;0.50;;;;;;;;;;5083489;28;20207;-71
2024/04/07 05:50:15;;;;;;;1.48;0.50;;;;;;;;;;5080934;28;20216;-71
2024/04/07 05:52:41;;;;;;;1.75;0.50;;;;;;;;;;5076983;28;20219;-71
2024/04/07 05:55:08;;;;;;;2.40;0.43;;;;;;;;;;5077460;28;20183;-71
2024/04/07 05:57:37;;;;;;;1.15;0.40;;;;;;;;;;5075667;28;20211;-71
2024/04/07 06:00:06;;;;;;;1.30;0.50;;;;;;;;;;5079615;28;20180;-71
2024/04/07 06:02:31;;;;;;;4.40;0.55;;;;;;;;;;5086687;28;20184;-72
2024/04/07 06:04:57;;;;;;;2.67;0.68;;;;;;;;;;5087017;28;20206;-72
2024/04/07 06:07:22;;;;;;;3.60;0.40;;;;;;;;;;5077905;28;20256;-71
2024/04/07 06:09:48;;;;;;;1.75;0.60;;;;;;;;;;5070440;28;20291;-70
2024/04/07 06:12:13;;;;;;;1.67;0.47;;;;;;;;;;5074299;28;20191;-71
2024/04/07 06:14:39;;;;;;;1.67;0.28;;;;;;;;;;5084299;28;20188;-71
2024/04/07 06:17:04;;;;;;;1.95;0.40;;;;;;;;;;5075771;28;20491;-71
2024/04/07 06:19:30;;;;;;;1.60;0.40;;;;;;;;;;5078633;28;20261;-71
2024/04/07 06:21:55;;;;;;;2.10;0.40;;;;;;;;;;5087935;28;20722;-71
2024/04/07 06:24:21;;;;;;;1.20;0.40;;;;;;;;;;5080403;28;20198;-71
2024/04/07 06:26:46;;;;;;;1.27;0.30;;;;;;;;;;5082840;28;20192;-72
2024/04/07 06:29:11;;;;;;;1.13;0.45;;;;;;;;;;5069536;28;20201;-72
2024/04/07 06:31:37;;;;;;;2.80;0.60;;;;;;;;;;5093566;28;20188;-71
2024/04/07 06:34:03;;;;;;;1.17;0.30;;;;;;;;;;5084861;28;20267;-71
2024/04/07 06:36:29;;;;;;;2.17;0.40;;;;;;;;;;5081650;28;20186;-71
2024/04/07 06:38:54;;;;;;;1.98;0.30;;;;;;;;;;5076410;28;20306;-71
2024/04/07 06:41:20;;;;;;;3.97;0.50;;;;;;;;;;5081469;28;20199;-71
2024/04/07 06:43:45;;;;;;;4.45;0.40;;;;;;;;;;5085649;28;20227;-71
2024/04/07 06:46:11;;;;;;;2.28;0.50;;;;;;;;;;5077580;28;20188;-70
2024/04/07 06:48:36;;;;;;;0.98;0.30;;;;;;;;;;5075711;28;20197;-71
2024/04/07 06:51:02;;;;;;;1.30;0.35;;;;;;;;;;5082948;28;20301;-71
2024/04/07 06:53:27;;;;;;;2.15;0.60;;;;;;;;;;5084538;28;20278;-71
2024/04/07 06:55:53;;;;;;;2.67;0.40;;;;;;;;;;5088282;28;20230;-71
2024/04/07 06:58:18;;;;;;;2.55;0.30;;;;;;;;;;5072371;28;20192;-71
2024/04/07 07:00:43;;;;;;;1.45;0.38;;;;;;;;;;5074559;28;20189;-71
2024/04/07 07:03:09;;;;;;;1.60;0.40;;;;;;;;;;5088473;28;20223;-71
2024/04/07 07:05:34;;;;;;;1.42;0.35;;;;;;;;;;5085757;28;20291;-71
2024/04/07 07:08:00;;;;;;;3.58;0.50;;;;;;;;;;5082449;28;20196;-71
2024/04/07 07:10:25;;;;;;;4.88;0.50;;;;;;;;;;5090138;28;20191;-71
2024/04/07 07:12:51;;;;;;;3.20;0.52;;;;;;;;;;5090251;28;20364;-71
2024/04/07 07:15:16;;;;;;;1.23;0.38;;;;;;;;;;5083459;28;20612;-71
2024/04/07 07:17:41;;;;;;;2.38;0.40;;;;;;;;;;5089970;28;20270;-71
2024/04/07 07:20:07;;;;;;;2.78;0.40;;;;;;;;;;5083696;28;20217;-71
2024/04/07 07:22:33;;;;;;;5.22;0.50;;;;;;;;;;5084326;28;20561;-71
2024/04/07 07:24:58;;;;;;;1.25;0.50;;;;;;;;;;5084582;28;20190;-72
2024/04/07 07:27:23;;;;;;;1.95;0.38;;;;;;;;;;5082241;28;20191;-71
2024/04/07 07:29:49;;;;;;;5.18;0.82;;;;;;;;;;5079531;28;20185;-72
2024/04/07 07:32:15;;;;;;;1.40;0.47;;;;;;;;;;5090441;28;20188;-71
2024/04/07 07:34:40;;;;;;;2.85;0.60;;;;;;;;;;5085259;28;20199;-71
2024/04/07 07:37:06;;;;;;;1.20;0.40;;;;;;;;;;5090804;28;20192;-72
2024/04/07 07:39:31;;;;;;;0.55;0.30;;;;;;;;;;5089408;28;20605;-70
2024/04/07 07:41:57;;;;;;;1.60;0.40;;;;;;;;;;5089496;28;20195;-71
2024/04/07 07:44:22;;;;;;;0.65;0.40;;;;;;;;;;5089195;28;20258;-70
2024/04/07 07:46:48;;;;;;;2.03;0.43;;;;;;;;;;5083476;28;20660;-72
2024/04/07 07:49:13;;;;;;;3.38;1.05;;;;;;;;;;5083246;28;20223;-70
2024/04/07 07:51:38;;;;;;;1.83;0.60;;;;;;;;;;5070467;28;20193;-71
2024/04/07 07:54:04;;;;;;;1.27;0.50;;;;;;;;;;5079029;28;20192;-72
2024/04/07 07:56:29;;;;;;;2.35;0.40;;;;;;;;;;5084583;28;20184;-72
2024/04/07 07:58:55;;;;;;;1.25;0.45;;;;;;;;;;5076808;28;20185;-71
2024/04/07 08:01:20;;;;;;;2.47;0.63;;;;;;;;;;5090115;28;20262;-71
2024/04/07 08:03:46;;;;;;;1.80;0.47;;;;;;;;;;5081522;28;20199;-71
2024/04/07 08:06:11;;;;;;;1.63;0.50;;;;;;;;;;5080561;28;20734;-71
2024/04/07 08:08:37;;;;;;;1.55;0.40;;;;;;;;;;5082198;28;21238;-70
2024/04/07 08:11:03;;;;;;;1.42;0.75;;;;;;;;;;5070096;28;20326;-71
2024/04/07 08:13:28;;;;;;;5.80;0.45;;;;;;;;;;5082954;28;20181;-71
2024/04/07 08:15:54;;;;;;;2.13;0.60;;;;;;;;;;5081914;28;20191;-70
2024/04/07 08:18:19;;;;;;;3.42;0.65;;;;;;;;;;5079460;28;20215;-71
2024/04/07 08:20:45;;;;;;;2.50;0.80;;;;;;;;;;5082936;28;20645;-71
2024/04/07 08:23:12;;;;;;;3.13;0.60;;;;;;;;;;5078767;28;20188;-71
2024/04/07 08:25:37;;;;;;;2.92;0.70;;;;;;;;;;5082475;28;20266;-71
2024/04/07 08:28:06;;;;;;;3.33;0.50;;;;;;;;;;5067706;28;20235;-71
2024/04/07 08:30:32;;;;;;;1.55;0.50;;;;;;;;;;5089913;28;20184;-71
2024/04/07 08:32:58;;;;;;;4.80;0.60;;;;;;;;;;5080326;28;20180;-70
2024/04/07 08:35:24;;;;;;;2.80;0.68;;;;;;;;;;5088100;28;20607;-70
2024/04/07 08:37:49;;;;;;;2.85;0.85;;;;;;;;;;5083969;28;20241;-70
2024/04/07 08:40:15;;;;;;;1.70;0.60;;;;;;;;;;5085956;28;20229;-70
2024/04/07 08:42:42;;;;;;;1.55;0.63;;;;;;;;;;5086927;28;20192;-70
2024/04/07 08:45:09;;;;;;;2.70;0.63;;;;;;;;;;5082246;28;20233;-70
2024/04/07 08:47:36;;;;;;;3.10;0.98;;;;;;;;;;5087200;28;20241;-70
2024/04/07 08:50:03;;;;;;;3.80;0.90;;;;;;;;;;5078519;28;20199;-69
2024/04/07 08:52:28;;;;;;;1.83;0.60;;;;;;;;;;5082416;28;20239;-70
2024/04/07 08:54:54;;;;;;;4.88;0.60;;;;;;;;;;5077628;28;20192;-71
2024/04/07 08:57:22;;;;;;;2.55;0.60;;;;;;;;;;5084427;28;20184;-71
2024/04/07 08:59:48;;;;;;;4.90;0.80;;;;;;;;;;5088945;28;20503;-69
2024/04/07 09:02:15;;;;;;;5.47;0.70;;;;;;;;;;5081224;28;20545;-70
2024/04/07 09:04:41;;;;;;;2.47;0.88;;;;;;;;;;5084534;28;20303;-71
2024/04/07 09:07:07;;;;;;;2.53;0.50;;;;;;;;;;5087610;28;20285;-70
2024/04/07 09:09:33;;;;;;;3.40;0.50;;;;;;;;;;5081526;28;20733;-70
2024/04/07 09:11:59;;;;;;;3.63;1.00;;;;;;;;;;5086382;28;20195;-71
2024/04/07 09:14:29;;;;;;;2.08;0.70;;;;;;;;;;5086409;28;20500;-69
2024/04/07 09:17:01;;;;;;;3.17;0.77;;;;;;;;;;5074315;28;20334;-72
2024/04/07 09:19:29;;;;;;;3.40;0.77;;;;;;;;;;5059442;28;20211;-70
2024/04/07 09:21:55;;;;;;;1.77;0.80;;;;;;;;;;5082470;28;20200;-71
2024/04/07 09:24:20;;;;;;;3.45;0.82;;;;;;;;;;5085465;28;20553;-70
2024/04/07 09:26:45;;;;;;;1.88;0.88;;;;;;;;;;5086939;28;20196;-71
2024/04/07 09:29:11;;;;;;;2.97;0.88;;;;;;;;;;5087421;28;20248;-71
2024/04/07 09:31:36;;;;;;;4.65;0.90;;;;;;;;;;5075133;28;20185;-71
2024/04/07 09:34:02;;;;;;;5.72;0.82;;;;;;;;;;5088405;28;20184;-72
2024/04/07 09:36:27;;;;;;;2.42;1.20;;;;;;;;;;5078787;28;20197;-70
2024/04/07 09:38:53;;;;;;;1.88;0.60;;;;;;;;;;5084465;28;20238;-70
2024/04/07 09:41:21;;;;;;;2.78;0.60;;;;;;;;;;5088692;28;20187;-70
2024/04/07 09:43:52;;;;;;;3.50;0.60;;;;;;;;;;5085223;28;20192;-69
2024/04/07 09:46:22;;;;;;;2.22;0.70;;;;;;;;;;5078523;28;20197;-69
2024/04/07 09:48:52;;;;;;;4.85;1.00;;;;;;;;;;5087746;28;20233;-71
2024/04/07 09:51:21;;;;;;;3.33;1.02;;;;;;;;;;5077990;28;20687;-70
2024/04/07 09:53:56;;;;;;;3.72;0.98;;;;;;;;;;5077077;28;20184;-70
2024/04/07 09:56:26;;;;;;;4.18;1.10;;;;;;;;;;5073094;28;20683;-70
2024/04/07 09:58:53;;;;;;;3.33;0.85;;;;;;;;;;5081010;28;20195;-70
2024/04/07 10:01:21;;;;;;;3.05;0.70;;;;;;;;;;5083310;28;20223;-71
2024/04/07 10:03:48;;;;;;;4.85;1.00;;;;;;;;;;5079427;28;20189;-71
2024/04/07 10:06:15;;;;;;;5.35;1.05;;;;;;;;;;5084816;28;20180;-70
2024/04/07 10:08:41;;;;;;;3.97;1.00;;;;;;;;;;5087640;28;20302;-70
2024/04/07 10:11:15;;;;;;;2.55;1.00;;;;;;;;;;5081652;28;20192;-70
2024/04/07 10:13:40;;;;;;;2.53;0.80;;;;;;;;;;5085988;28;20730;-70
2024/04/07 10:16:07;;;;;;;2.35;0.77;;;;;;;;;;5076027;28;20215;-70
2024/04/07 10:18:33;;;;;;;3.10;1.00;;;;;;;;;;5075836;28;20279;-71
2024/04/07 10:20:59;;;;;;;2.53;0.75;;;;;;;;;;5087231;28;20275;-72
2024/04/07 10:23:26;;;;;;;2.75;0.80;;;;;;;;;;5067824;28;20272;-71
2024/04/07 10:25:59;;;;;;;4.05;0.85;;;;;;;;;;5081486;28;20234;-71
2024/04/07 10:28:25;;;;;;;10.30;1.10;;;;;;;;;;5088170;28;20235;-72
2024/04/07 10:30:58;;;;;;;3.60;0.60;;;;;;;;;;5077059;28;20188;-71
2024/04/07 10:33:30;;;;;;;3.83;0.80;;;;;;;;;;5073748;28;20184;-72
2024/04/07 10:36:00;;;;;;;6.80;1.17;;;;;;;;;;5084996;28;20188;-71
2024/04/07 10:38:25;;;;;;;3.25;0.82;;;;;;;;;;5080427;28;20216;-71
2024/04/07 10:40:55;;;;;;;3.75;1.05;;;;;;;;;;5086673;28;20252;-72
2024/04/07 10:43:21;;;;;;;3.58;0.90;;;;;;;;;;5081647;28;20184;-72
2024/04/07 10:45:48;;;;;;;3.85;0.77;;;;;;;;;;5083441;28;20199;-71
2024/04/07 10:48:13;;;;;;;1.88;0.70;;;;;;;;;;5089530;28;20211;-70
2024/04/07 10:50:39;;;;;;;3.25;0.88;;;;;;;;;;5072069;28;20200;-74
2024/04/07 10:53:08;;;;;;;6.30;0.82;;;;;;;;;;5082893;28;20321;-71
2024/04/07 10:55:34;;;;;;;4.18;0.70;;;;;;;;;;5071255;28;20189;-70
2024/04/07 10:57:59;;;;;;;2.65;0.75;;;;;;;;;;5094442;28;20643;-71
2024/04/07 11:00:25;;;;;;;4.45;1.33;;;;;;;;;;5074353;28;20198;-71
2024/04/07 11:02:52;;;;;;;4.93;0.70;;;;;;;;;;5083201;28;20192;-71
2024/04/07 11:05:18;;;;;;;5.40;1.00;;;;;;;;;;5074771;28;20559;-71
2024/04/07 11:07:45;;;;;;;3.95;0.77;;;;;;;;;;5087617;28;20184;-71
2024/04/07 11:10:11;;;;;;;4.03;0.80;;;;;;;;;;5086906;28;20188;-70
2024/04/07 11:12:42;;;;;;;4.00;0.70;;;;;;;;;;5084164;28;20520;-72
2024/04/07 11:15:18;;;;;;;2.85;0.70;;;;;;;;;;5071760;28;20555;-72
2024/04/07 11:17:43;;;;;;;2.55;0.90;;;;;;;;;;5078667;28;20586;-71
2024/04/07 11:20:12;;;;;;;3.05;0.73;;;;;;;;;;5078589;28;20207;-72
2024/04/07 11:22:38;;;;;;;6.18;0.77;;;;;;;;;;5081386;28;20676;-70
2024/04/07 11:25:04;;;;;;;2.35;0.65;;;;;;;;;;5073275;28;20195;-71
2024/04/07 11:27:30;;;;;;;2.78;0.73;;;;;;;;;;5082531;28;20180;-71
2024/04/07 11:29:55;;;;;;;2.60;0.90;;;;;;;;;;5084887;28;20322;-71
2024/04/07 11:32:26;;;;;;;4.10;0.90;;;;;;;;;;5087461;28;20216;-70
2024/04/07 11:34:51;;;;;;;1.95;0.63;;;;;;;;;;5078119;28;20215;-71
2024/04/07 11:37:17;;;;;;;1.67;0.60;;;;;;;;;;5069674;28;20540;-70
2024/04/07 11:39:49;;;;;;;2.58;0.70;;;;;;;;;;5078084;28;20531;-70
2024/04/07 11:42:14;;;;;;;3.70;0.82;;;;;;;;;;5077460;28;20644;-70
2024/04/07 11:44:40;;;;;;;5.63;0.90;;;;;;;;;;5083750;28;20187;-70
2024/04/07 11:47:06;;;;;;;1.70;0.70;;;;;;;;;;5076447;28;20250;-71
2024/04/07 11:49:33;;;;;;;1.27;0.57;;;;;;;;;;5086783;28;20246;-70
2024/04/07 11:51:58;;;;;;;2.03;0.77;;;;;;;;;;5088741;28;20555;-70
2024/04/07 11:54:24;;;;;;;2.53;1.00;;;;;;;;;;5072237;28;20457;-71
2024/04/07 11:56:51;;;;;;;3.80;0.70;;;;;;;;;;5087557;28;20265;-71
2024/04/07 11:59:17;;;;;;;2.50;0.70;;;;;;;;;;5080466;28;20317;-71
2024/04/07 12:01:42;;;;;;;3.47;0.90;;;;;;;;;;5074100;28;20275;-71
2024/04/07 12:04:08;;;;;;;2.85;0.65;;;;;;;;;;5077196;28;20264;-71
2024/04/07 12:06:33;;;;;;;2.88;0.75;;;;;;;;;;5085825;28;20353;-71
2024/04/07 12:08:59;;;;;;;3.17;0.90;;;;;;;;;;5088113;28;20223;-69
2024/04/07 12:11:24;;;;;;;3.35;0.90;;;;;;;;;;5087994;28;20603;-71
2024/04/07 12:13:49;;;;;;;5.18;0.90;;;;;;;;;;5083146;28;20188;-70
2024/04/07 12:16:15;;;;;;;1.92;0.93;;;;;;;;;;5072480;28;20195;-70
2024/04/07 12:18:40;;;;;;;3.60;1.00;;;;;;;;;;5087146;28;20273;-70
2024/04/07 12:21:06;;;;;;;4.10;1.00;;;;;;;;;;5090732;28;20191;-70
2024/04/07 12:23:31;;;;;;;2.45;0.80;;;;;;;;;;5070708;28;20187;-70
2024/04/07 12:25:57;;;;;;;2.42;0.80;;;;;;;;;;5087724;28;20199;-71
2024/04/07 12:28:22;;;;;;;3.33;0.88;;;;;;;;;;5086428;28;20571;-70
2024/04/07 12:30:50;;;;;;;2.42;0.65;;;;;;;;;;5081713;28;20254;-71
2024/04/07 12:33:15;;;;;;;1.85;0.73;;;;;;;;;;5083860;28;20190;-70
2024/04/07 12:35:42;;;;;;;4.45;0.90;;;;;;;;;;5079132;28;20193;-70
2024/04/07 12:38:08;;;;;;;2.88;0.90;;;;;;;;;;5075316;28;20254;-70
2024/04/07 12:40:35;;;;;;;1.65;0.80;;;;;;;;;;5080396;28;20361;-69
2024/04/07 12:43:01;;;;;;;6.70;1.13;;;;;;;;;;5081987;28;20603;-71
2024/04/07 12:45:28;;;;;;;4.95;0.80;;;;;;;;;;5074834;28;20620;-69
2024/04/07 12:47:53;;;;;;;2.95;1.02;;;;;;;;;;5079848;28;20242;-70
2024/04/07 12:50:19;;;;;;;2.35;0.70;;;;;;;;;;5079567;28;20212;-70
2024/04/07 12:52:47;;;;;;;5.78;0.80;;;;;;;;;;5074624;28;20267;-70
2024/04/07 12:55:13;;;;;;;1.98;0.50;;;;;;;;;;5078965;28;20639;-70
2024/04/07 12:57:38;;;;;;;2.28;0.80;;;;;;;;;;5068570;28;20360;-70
2024/04/07 13:00:14;;;;;;;1.70;0.80;;;;;;;;;;5083245;28;20206;-70
2024/04/07 13:02:43;;;;;;;2.03;0.90;;;;;;;;;;5077567;28;20249;-70
2024/04/07 13:05:08;;;;;;;2.55;0.80;;;;;;;;;;5083934;28;20191;-71
2024/04/07 13:07:35;;;;;;;2.00;0.85;;;;;;;;;;5086229;28;20180;-71
2024/04/07 13:10:01;;;;;;;3.22;0.85;;;;;;;;;;5085175;28;20665;-71
2024/04/07 13:12:28;;;;;;;2.88;0.88;;;;;;;;;;5086930;28;20203;-71
2024/04/07 13:14:53;;;;;;;3.22;0.80;;;;;;;;;;5075647;28;20184;-70
2024/04/07 13:17:19;;;;;;;3.55;0.88;;;;;;;;;;5083445;28;20538;-71
2024/04/07 13:19:44;;;;;;;3.97;0.98;;;;;;;;;;5085950;28;20693;-70
2024/04/07 13:22:10;;;;;;;2.33;0.80;;;;;;;;;;5088066;28;20252;-70
2024/04/07 13:24:35;;;;;;;3.80;0.80;;;;;;;;;;5088607;28;20188;-71
2024/04/07 13:27:01;;;;;;;2.42;0.70;;;;;;;;;;5081042;28;20279;-71
2024/04/07 13:29:26;;;;;;;2.83;0.80;;;;;;;;;;5079444;28;20562;-71
2024/04/07 13:31:52;;;;;;;2.33;0.60;;;;;;;;;;5086594;28;20702;-71
2024/04/07 13:34:17;;;;;;;2.30;0.70;;;;;;;;;;5077263;28;20245;-70
2024/04/07 13:36:42;;;;;;;2.05;0.68;;;;;;;;;;5086329;28;20184;-70
2024/04/07 13:39:10;;;;;;;2.15;0.95;;;;;;;;;;5074516;28;20235;-71
2024/04/07 13:41:38;;;;;;;4.53;0.70;;;;;;;;;;5074279;28;20176;-71
2024/04/07 13:44:04;;;;;;;1.60;1.10;;;;;;;;;;5072338;28;20189;-70
2024/04/07 13:46:30;;;;;;;3.15;0.95;;;;;;;;;;5075425;28;20658;-70
2024/04/07 13:48:55;;;;;;;2.10;1.08;;;;;;;;;;5078329;28;20320;-70
2024/04/07 13:51:20;;;;;;;1.42;0.63;;;;;;;;;;5058552;28;20624;-70
2024/04/07 13:53:46;;;;;;;3.03;0.88;;;;;;;;;;5073478;28;20223;-70
2024/04/07 13:56:11;;;;;;;3.28;1.00;;;;;;;;;;5084981;28;20650;-70
2024/04/07 13:58:37;;;;;;;1.55;0.65;;;;;;;;;;5086437;28;20180;-70
2024/04/07 14:01:02;;;;;;;2.80;0.90;;;;;;;;;;5088306;28;20527;-70
2024/04/07 14:03:28;;;;;;;4.45;0.90;;;;;;;;;;5087521;28;20275;-70
2024/04/07 14:05:54;;;;;;;1.38;0.63;;;;;;;;;;5088478;28;20188;-70
2024/04/07 14:08:19;;;;;;;1.85;0.60;;;;;;;;;;5088524;28;20203;-70
2024/04/07 14:10:47;;;;;;;3.58;0.85;;;;;;;;;;5074987;28;20288;-70
2024/04/07 14:13:13;;;;;;;1.90;0.70;;;;;;;;;;5070850;28;20278;-70
2024/04/07 14:15:38;;;;;;;2.42;0.55;;;;;;;;;;5086861;28;20280;-70
2024/04/07 14:18:04;;;;;;;3.70;0.88;;;;;;;;;;5075385;28;20180;-70
2024/04/07 14:20:30;;;;;;;2.58;0.93;;;;;;;;;;5086471;28;20204;-70
2024/04/07 14:22:55;;;;;;;1.73;0.73;;;;;;;;;;5083419;28;20279;-70
2024/04/07 14:25:21;;;;;;;2.45;0.70;;;;;;;;;;5070657;28;20647;-70
2024/04/07 14:27:49;;;;;;;1.80;1.00;;;;;;;;;;5086392;28;20198;-70
2024/04/07 14:30:17;;;;;;;3.60;0.77;;;;;;;;;;5092229;28;20241;-71
2024/04/07 14:32:44;;;;;;;4.90;1.10;;;;;;;;;;5084747;28;20179;-70
2024/04/07 14:35:09;;;;;;;4.57;1.08;;;;;;;;;;5085436;28;20702;-71
2024/04/07 14:37:34;;;;;;;2.05;0.68;;;;;;;;;;5077437;28;20188;-71
2024/04/07 14:40:00;;;;;;;2.45;0.85;;;;;;;;;;5082473;28;20228;-70
2024/04/07 14:42:25;;;;;;;2.53;0.70;;;;;;;;;;5086325;28;20248;-70